createdAt,value
2023-05-25T00:00:41.872Z,86.01
2023-05-25T00:02:56.496Z,86.28
2023-05-25T00:05:01.249Z,86.79
2023-05-25T00:07:05.090Z,87.44
2023-05-25T00:09:08.845Z,86.82
2023-05-25T00:11:12.597Z,86.96
2023-05-25T00:13:16.277Z,86.45
2023-05-25T00:15:19.981Z,86.93
2023-05-25T00:17:24.535Z,86.83
2023-05-25T00:19:29.695Z,86.63
2023-05-25T00:21:34.534Z,86.75
2023-05-25T00:23:38.333Z,87.13
2023-05-25T00:25:42.228Z,86.75
2023-05-25T00:27:46.115Z,87.34
2023-05-25T00:29:49.784Z,86.79
2023-05-25T00:31:53.691Z,86.93
2023-05-25T00:33:57.451Z,86.78
2023-05-25T00:36:03.802Z,86.91
2023-05-25T00:38:07.325Z,87.49
2023-05-25T00:40:16.097Z,87.04
2023-05-25T00:42:20.855Z,87.17
2023-05-25T00:44:24.508Z,87.38
2023-05-25T00:46:29.379Z,86.98
2023-05-25T00:48:33.838Z,86.77
2023-05-25T00:50:40.816Z,87.04
2023-05-25T00:52:46.099Z,87.11
2023-05-25T00:54:53.599Z,87.09
2023-05-25T00:57:19.194Z,86.50
2023-05-25T00:59:31.088Z,86.90
2023-05-25T01:01:40.480Z,86.72
2023-05-25T01:03:47.690Z,86.60
2023-05-25T01:05:52.867Z,86.07
2023-05-25T01:08:02.041Z,85.88
2023-05-25T01:10:09.312Z,86.50
2023-05-25T01:12:15.863Z,86.35
2023-05-25T01:14:55.986Z,85.62
2023-05-25T01:17:20.683Z,86.09
2023-05-25T01:19:24.430Z,85.32
2023-05-25T01:21:38.371Z,85.61
2023-05-25T01:23:48.011Z,85.58
2023-05-25T01:25:56.567Z,85.47
2023-05-25T01:28:05.872Z,85.11
2023-05-25T01:30:14.258Z,85.29
2023-05-25T01:32:20.206Z,85.15
2023-05-25T01:34:25.044Z,84.96
2023-05-25T01:36:30.122Z,85.13
2023-05-25T01:38:33.962Z,85.70
2023-05-25T01:40:37.603Z,85.27
2023-05-25T01:42:41.140Z,85.18
2023-05-25T01:44:45.714Z,85.26
2023-05-25T01:50:01.455Z,86.39
2023-05-25T01:52:17.482Z,86.59
2023-05-25T01:54:23.113Z,86.14
2023-05-25T01:56:30.692Z,86.75
2023-05-25T01:58:41.838Z,86.57
2023-05-25T02:00:50.521Z,86.82
2023-05-25T02:02:56.823Z,86.14
2023-05-25T02:05:01.313Z,87.15
2023-05-25T02:07:07.328Z,86.54
2023-05-25T02:09:11.307Z,86.95
2023-05-25T02:11:15.950Z,86.87
2023-05-25T02:13:19.715Z,87.14
2023-05-25T02:15:23.647Z,87.21
2023-05-25T02:17:28.936Z,87.28
2023-05-25T02:19:32.667Z,87.44
2023-05-25T02:21:38.387Z,87.94
2023-05-25T02:23:43.475Z,88.26
2023-05-25T02:25:47.132Z,87.61
2023-05-25T02:27:50.751Z,87.62
2023-05-25T02:29:54.617Z,87.81
2023-05-25T02:32:02.288Z,87.81
2023-05-25T02:34:06.156Z,88.32
2023-05-25T02:36:10.283Z,88.17
2023-05-25T02:38:14.129Z,88.13
2023-05-25T02:40:20.655Z,88.33
2023-05-25T02:42:24.457Z,89.01
2023-05-25T02:44:28.237Z,88.99
2023-05-25T02:46:33.933Z,88.39
2023-05-25T02:48:37.669Z,89.65
2023-05-25T02:50:41.415Z,89.06
2023-05-25T02:52:49.264Z,89.19
2023-05-25T02:54:53.024Z,89.38
2023-05-25T02:57:06.300Z,89.51
2023-05-25T02:59:10.387Z,89.82
2023-05-25T03:01:19.065Z,90.28
2023-05-25T03:03:29.685Z,89.99
2023-05-25T03:05:35.389Z,89.81
2023-05-25T03:07:39.117Z,90.04
2023-05-25T03:09:42.556Z,90.27
2023-05-25T03:11:45.963Z,89.91
2023-05-25T03:13:54.562Z,89.83
2023-05-25T03:15:59.091Z,90.32
2023-05-25T03:18:02.636Z,90.15
2023-05-25T03:20:11.952Z,89.85
2023-05-25T03:22:20.017Z,90.25
2023-05-25T03:24:23.837Z,89.26
2023-05-25T03:26:29.106Z,90.04
2023-05-25T03:28:32.502Z,89.57
2023-05-25T03:30:37.663Z,90.42
2023-05-25T03:32:41.942Z,90.26
2023-05-25T03:34:45.397Z,90.21
2023-05-25T03:36:53.595Z,89.95
2023-05-25T03:38:57.091Z,90.44
2023-05-25T03:41:00.840Z,89.91
2023-05-25T03:43:04.176Z,90.04
2023-05-25T03:45:09.669Z,89.82
2023-05-25T03:47:15.285Z,89.60
2023-05-25T03:49:19.074Z,90.26
2023-05-25T03:51:22.418Z,89.71
2023-05-25T03:53:25.804Z,89.88
2023-05-25T03:55:29.552Z,89.74
2023-05-25T03:57:32.943Z,90.21
2023-05-25T03:59:36.305Z,89.82
2023-05-25T04:01:40.166Z,90.09
2023-05-25T04:03:45.087Z,89.74
2023-05-25T04:05:48.506Z,89.74
2023-05-25T04:07:52.280Z,89.67
2023-05-25T04:09:55.576Z,89.83
2023-05-25T04:11:59.599Z,89.39
2023-05-25T04:14:02.953Z,88.77
2023-05-25T04:16:10.480Z,89.23
2023-05-25T04:18:14.086Z,89.55
2023-05-25T04:20:19.336Z,90.14
2023-05-25T04:22:22.822Z,89.90
2023-05-25T04:24:26.479Z,90.38
2023-05-25T04:26:30.594Z,89.81
2023-05-25T04:28:34.285Z,90.41
2023-05-25T04:30:48.773Z,90.38
2023-05-25T04:33:12.201Z,90.51
2023-05-25T04:35:36.916Z,89.98
2023-05-25T04:37:40.978Z,89.88
2023-05-25T04:39:45.626Z,89.77
2023-05-25T04:41:49.616Z,89.94
2023-05-25T04:44:07.919Z,90.02
2023-05-25T04:46:17.216Z,89.85
2023-05-25T04:48:21.643Z,89.96
2023-05-25T04:50:25.096Z,89.92
2023-05-25T04:52:30.684Z,90.21
2023-05-25T04:54:34.176Z,90.27
2023-05-25T04:56:38.852Z,90.32
2023-05-25T04:58:42.892Z,90.66
2023-05-25T05:00:47.318Z,90.09
2023-05-25T05:02:51.645Z,90.35
2023-05-25T05:04:55.293Z,89.71
2023-05-25T05:07:00.020Z,89.86
2023-05-25T05:09:07.410Z,87.92
2023-05-25T05:11:10.510Z,83.73
2023-05-25T05:13:14.258Z,81.51
2023-05-25T05:15:18.781Z,78.67
2023-05-25T05:17:24.174Z,75.96
2023-05-25T05:19:27.944Z,73.23
2023-05-25T05:21:32.402Z,70.67
2023-05-25T05:23:37.626Z,70.88
2023-05-25T05:25:42.526Z,71.70
2023-05-25T05:27:46.095Z,72.49
2023-05-25T05:29:54.714Z,73.32
2023-05-25T05:31:58.240Z,74.76
2023-05-25T05:34:04.191Z,74.61
2023-05-25T05:36:09.193Z,71.99
2023-05-25T05:38:13.575Z,67.76
2023-05-25T05:40:17.250Z,65.65
2023-05-25T05:42:22.126Z,63.55
2023-05-25T05:44:29.084Z,61.23
2023-05-25T05:46:33.958Z,60.19
2023-05-25T05:48:37.478Z,59.58
2023-05-25T05:50:42.496Z,57.27
2023-05-25T05:52:48.193Z,55.82
2023-05-25T05:54:51.472Z,54.33
2023-05-25T05:56:54.860Z,53.52
2023-05-25T05:58:59.901Z,52.65
2023-05-25T06:01:04.687Z,53.05
2023-05-25T06:03:08.215Z,52.15
2023-05-25T06:05:11.737Z,52.65
2023-05-25T06:07:17.937Z,51.63
2023-05-25T06:09:21.317Z,50.41
2023-05-25T06:11:24.659Z,50.61
2023-05-25T06:13:28.313Z,49.15
2023-05-25T06:15:33.634Z,48.62
2023-05-25T06:17:39.126Z,48.03
2023-05-25T06:19:43.857Z,47.28
2023-05-25T06:21:47.187Z,44.65
2023-05-25T06:23:50.702Z,45.48
2023-05-25T06:25:55.282Z,45.76
2023-05-25T06:27:58.800Z,45.87
2023-05-25T06:30:02.764Z,45.61
2023-05-25T06:32:10.961Z,44.89
2023-05-25T06:34:15.382Z,43.73
2023-05-25T06:36:20.256Z,43.88
2023-05-25T06:38:24.270Z,42.94
2023-05-25T06:40:28.073Z,43.37
2023-05-25T06:42:32.205Z,43.14
2023-05-25T06:44:36.724Z,42.58
2023-05-25T06:46:45.196Z,42.52
2023-05-25T06:48:50.703Z,42.62
2023-05-25T06:50:54.749Z,42.13
2023-05-25T06:53:00.333Z,42.13
2023-05-25T06:55:05.532Z,42.88
2023-05-25T06:57:09.248Z,43.01
2023-05-25T06:59:13.257Z,43.24
2023-05-25T07:01:17.412Z,42.36
2023-05-25T07:03:21.205Z,41.45
2023-05-25T07:05:26.324Z,41.98
2023-05-25T07:07:29.891Z,41.68
2023-05-25T07:09:34.133Z,42.17
2023-05-25T07:11:37.850Z,41.99
2023-05-25T07:13:41.609Z,41.99
2023-05-25T07:15:45.781Z,42.09
2023-05-25T07:17:50.385Z,42.09
2023-05-25T07:19:54.173Z,42.54
2023-05-25T07:21:59.282Z,42.30
2023-05-25T07:24:03.004Z,42.59
2023-05-25T07:26:06.701Z,43.47
2023-05-25T07:28:10.661Z,44.50
2023-05-25T07:30:15.285Z,43.91
2023-05-25T07:32:18.861Z,43.50
2023-05-25T07:34:22.545Z,43.18
2023-05-25T07:36:26.126Z,43.13
2023-05-25T07:38:31.214Z,42.79
2023-05-25T07:40:35.175Z,43.00
2023-05-25T07:42:38.699Z,42.93
2023-05-25T07:44:43.041Z,43.33
2023-05-25T07:46:46.849Z,42.67
2023-05-25T07:48:50.972Z,42.02
2023-05-25T07:50:54.716Z,41.65
2023-05-25T07:53:00.033Z,41.09
2023-05-25T07:55:05.190Z,41.32
2023-05-25T07:57:09.214Z,41.25
2023-05-25T07:59:12.857Z,41.14
2023-05-25T08:01:17.612Z,41.64
2023-05-25T08:03:31.664Z,41.89
2023-05-25T08:05:40.196Z,41.45
2023-05-25T08:07:43.992Z,41.36
2023-05-25T08:09:47.805Z,40.78
2023-05-25T08:11:55.994Z,40.43
2023-05-25T08:14:07.572Z,40.24
2023-05-25T08:16:11.778Z,40.26
2023-05-25T08:18:15.630Z,40.55
2023-05-25T08:20:20.149Z,40.88
2023-05-25T08:22:23.858Z,41.64
2023-05-25T08:24:27.545Z,41.42
2023-05-25T08:26:45.369Z,41.42
2023-05-25T08:28:56.566Z,41.92
2023-05-25T08:31:00.319Z,41.98
2023-05-25T08:33:04.193Z,42.84
2023-05-25T08:35:08.385Z,43.81
2023-05-25T08:37:12.483Z,43.94
2023-05-25T08:39:17.077Z,44.29
2023-05-25T08:41:21.478Z,44.76
2023-05-25T08:43:25.152Z,45.02
2023-05-25T08:45:36.059Z,45.10
2023-05-25T08:47:44.998Z,45.91
2023-05-25T08:49:51.110Z,46.10
2023-05-25T08:51:55.970Z,45.84
2023-05-25T08:54:02.726Z,45.91
2023-05-25T08:56:11.708Z,45.64
2023-05-25T08:58:20.914Z,45.86
2023-05-25T09:00:34.314Z,46.06
2023-05-25T09:02:43.761Z,46.29
2023-05-25T09:04:47.564Z,46.00
2023-05-25T09:07:02.063Z,46.16
2023-05-25T09:09:13.131Z,46.61
2023-05-25T09:11:22.984Z,46.68
2023-05-25T09:13:39.038Z,46.26
2023-05-25T09:15:45.559Z,46.05
2023-05-25T09:17:49.438Z,45.63
2023-05-25T09:19:53.147Z,45.66
2023-05-25T09:22:13.469Z,45.96
2023-05-25T09:24:19.365Z,46.05
2023-05-25T09:26:22.899Z,46.10
2023-05-25T09:28:27.809Z,46.05
2023-05-25T09:30:33.122Z,45.01
2023-05-25T09:32:40.463Z,45.08
2023-05-25T09:34:45.240Z,45.37
2023-05-25T09:36:48.997Z,45.56
2023-05-25T09:38:55.100Z,45.63
2023-05-25T09:40:59.557Z,45.79
2023-05-25T09:43:04.215Z,45.49
2023-05-25T09:45:08.836Z,45.11
2023-05-25T09:47:14.240Z,45.20
2023-05-25T09:49:20.075Z,45.76
2023-05-25T09:51:23.769Z,45.17
2023-05-25T09:53:28.401Z,44.58
2023-05-25T09:55:48.135Z,44.06
2023-05-25T09:57:56.934Z,43.03
2023-05-25T10:00:01.626Z,42.92
2023-05-25T10:02:16.010Z,42.71
2023-05-25T10:04:21.211Z,41.92
2023-05-25T10:06:25.380Z,41.68
2023-05-25T10:08:30.082Z,42.38
2023-05-25T10:10:33.852Z,42.01
2023-05-25T10:12:39.121Z,41.81
2023-05-25T10:14:45.208Z,41.73
2023-05-25T10:16:52.574Z,41.24
2023-05-25T10:19:01.851Z,41.01
2023-05-25T10:21:10.986Z,40.62
2023-05-25T10:23:18.163Z,40.04
2023-05-25T10:25:27.552Z,40.25
2023-05-25T10:27:36.254Z,40.17
2023-05-25T10:29:41.985Z,39.80
2023-05-25T10:31:47.644Z,39.48
2023-05-25T10:33:52.593Z,39.19
2023-05-25T10:36:09.503Z,39.66
2023-05-25T10:38:17.192Z,39.30
2023-05-25T10:40:22.871Z,39.47
2023-05-25T10:42:28.336Z,39.73
2023-05-25T10:44:32.500Z,39.79
2023-05-25T10:46:37.610Z,39.46
2023-05-25T10:48:41.957Z,39.48
2023-05-25T10:50:52.014Z,38.86
2023-05-25T10:53:03.424Z,38.85
2023-05-25T10:55:10.324Z,38.50
2023-05-25T10:57:19.020Z,39.07
2023-05-25T10:59:28.827Z,39.16
2023-05-25T11:01:33.813Z,39.48
2023-05-25T11:03:52.584Z,39.21
2023-05-25T11:05:56.542Z,38.58
2023-05-25T11:08:01.305Z,38.93
2023-05-25T11:10:04.602Z,38.42
2023-05-25T11:12:09.401Z,38.14
2023-05-25T11:14:22.829Z,37.92
2023-05-25T11:16:36.357Z,36.86
2023-05-25T11:18:40.233Z,37.09
2023-05-25T11:20:44.704Z,37.21
2023-05-25T11:22:49.915Z,37.08
2023-05-25T11:24:55.672Z,37.36
2023-05-25T11:27:01.668Z,36.64
2023-05-25T11:29:16.410Z,36.25
2023-05-25T11:31:29.292Z,36.32
2023-05-25T11:33:33.850Z,36.40
2023-05-25T11:35:40.264Z,36.38
2023-05-25T11:37:53.879Z,36.16
2023-05-25T11:39:57.681Z,35.77
2023-05-25T11:42:07.186Z,35.46
2023-05-25T11:44:11.273Z,34.84
2023-05-25T11:46:18.913Z,34.75
2023-05-25T11:48:22.609Z,34.65
2023-05-25T11:50:26.566Z,35.13
2023-05-25T11:52:30.209Z,35.07
2023-05-25T11:54:34.859Z,35.03
2023-05-25T11:56:38.109Z,35.18
2023-05-25T11:58:41.540Z,35.45
2023-05-25T12:00:45.656Z,35.30
2023-05-25T12:02:51.251Z,35.33
2023-05-25T12:04:56.459Z,35.40
2023-05-25T12:07:04.378Z,35.24
2023-05-25T12:09:13.110Z,34.73
2023-05-25T12:11:17.143Z,34.91
2023-05-25T12:13:20.948Z,35.33
2023-05-25T12:15:26.207Z,35.28
2023-05-25T12:17:30.469Z,35.39
2023-05-25T12:19:36.775Z,35.53
2023-05-25T12:21:41.628Z,35.94
2023-05-25T12:23:45.922Z,36.05
2023-05-25T12:25:51.455Z,36.01
2023-05-25T12:28:12.712Z,36.03
2023-05-25T12:30:16.659Z,36.36
2023-05-25T12:32:20.527Z,36.54
2023-05-25T12:34:29.191Z,36.67
2023-05-25T12:36:44.947Z,36.95
2023-05-25T12:39:00.154Z,40.60
2023-05-25T12:41:07.462Z,43.01
2023-05-25T12:43:12.145Z,45.35
2023-05-25T12:45:16.038Z,47.03
2023-05-25T12:47:21.348Z,47.37
2023-05-25T12:49:35.711Z,48.38
2023-05-25T12:51:43.955Z,49.57
2023-05-25T12:53:52.134Z,50.26
2023-05-25T12:56:03.047Z,51.23
2023-05-25T12:58:08.496Z,51.87
2023-05-25T13:00:13.636Z,51.76
2023-05-25T13:02:17.376Z,51.75
2023-05-25T13:04:21.547Z,51.49
2023-05-25T13:06:25.432Z,52.05
2023-05-25T13:08:30.819Z,51.83
2023-05-25T13:10:35.979Z,51.35
2023-05-25T13:12:39.808Z,51.96
2023-05-25T13:14:43.497Z,52.08
2023-05-25T13:16:47.508Z,52.80
2023-05-25T13:18:51.531Z,52.93
2023-05-25T13:20:56.791Z,53.28
2023-05-25T13:23:00.867Z,53.30
2023-05-25T13:25:06.657Z,53.20
2023-05-25T13:27:10.324Z,52.98
2023-05-25T13:29:14.054Z,52.30
2023-05-25T13:31:17.668Z,52.40
2023-05-25T13:33:21.243Z,53.26
2023-05-25T13:35:38.076Z,53.97
2023-05-25T13:37:41.591Z,55.02
2023-05-25T13:39:44.998Z,54.22
2023-05-25T13:41:49.929Z,54.81
2023-05-25T13:43:53.552Z,55.27
2023-05-25T13:45:59.330Z,55.81
2023-05-25T13:48:03.710Z,55.86
2023-05-25T13:50:09.154Z,55.70
2023-05-25T13:52:13.249Z,55.63
2023-05-25T13:54:17.607Z,55.42
2023-05-25T13:56:21.617Z,55.03
2023-05-25T13:58:27.566Z,55.01
2023-05-25T14:00:31.743Z,54.88
2023-05-25T14:02:36.077Z,54.89
2023-05-25T14:04:41.272Z,54.82
2023-05-25T14:06:51.823Z,55.19
2023-05-25T14:09:36.388Z,55.07
2023-05-25T14:11:44.172Z,54.90
2023-05-25T14:13:49.257Z,54.85
2023-05-25T14:15:54.188Z,54.69
2023-05-25T14:17:58.596Z,54.79
2023-05-25T14:20:04.544Z,54.80
2023-05-25T14:22:13.986Z,54.44
2023-05-25T14:24:25.955Z,54.40
2023-05-25T14:26:29.931Z,54.75
2023-05-25T14:28:33.614Z,54.12
2023-05-25T14:30:40.504Z,54.21
2023-05-25T14:32:44.368Z,54.21
2023-05-25T14:34:48.211Z,53.82
2023-05-25T14:36:51.811Z,53.59
2023-05-25T14:38:55.861Z,53.89
2023-05-25T14:40:59.585Z,53.86
2023-05-25T14:43:03.464Z,54.24
2023-05-25T14:45:10.788Z,54.08
2023-05-25T14:47:16.700Z,54.12
2023-05-25T14:49:21.684Z,54.04
2023-05-25T14:51:26.848Z,53.88
2023-05-25T14:53:30.733Z,54.32
2023-05-25T14:55:34.581Z,54.42
2023-05-25T14:57:38.398Z,54.53
2023-05-25T14:59:42.171Z,54.39
2023-05-25T15:01:46.911Z,54.78
2023-05-25T15:03:52.286Z,54.30
2023-05-25T15:05:56.669Z,54.84
2023-05-25T15:08:00.500Z,54.81
2023-05-25T15:10:04.285Z,54.68
2023-05-25T15:12:08.326Z,54.44
2023-05-25T15:14:12.809Z,54.46
2023-05-25T15:16:17.621Z,54.53
2023-05-25T15:18:20.981Z,54.37
2023-05-25T15:20:26.007Z,54.62
2023-05-25T15:22:29.711Z,54.24
2023-05-25T15:24:33.551Z,54.43
2023-05-25T15:26:37.379Z,54.37
2023-05-25T15:28:40.936Z,54.61
2023-05-25T15:30:44.745Z,55.04
2023-05-25T15:32:48.514Z,55.13
2023-05-25T15:34:52.624Z,55.12
2023-05-25T15:36:57.667Z,55.43
2023-05-25T15:39:01.743Z,55.17
2023-05-25T15:41:05.587Z,55.45
2023-05-25T15:43:09.471Z,55.44
2023-05-25T15:45:13.779Z,55.17
2023-05-25T15:47:17.809Z,55.53
2023-05-25T15:49:21.774Z,55.26
2023-05-25T15:51:25.465Z,55.47
2023-05-25T15:53:32.160Z,55.73
2023-05-25T15:55:35.886Z,55.79
2023-05-25T15:57:39.717Z,56.00
2023-05-25T15:59:43.280Z,56.49
2023-05-25T16:01:46.891Z,56.82
2023-05-25T16:03:50.731Z,56.90
2023-05-25T16:05:54.640Z,57.26
2023-05-25T16:07:59.012Z,57.16
2023-05-25T16:10:05.296Z,57.41
2023-05-25T16:12:09.596Z,57.86
2023-05-25T16:14:13.464Z,58.03
2023-05-25T16:16:19.483Z,58.15
2023-05-25T16:18:23.458Z,58.11
2023-05-25T16:20:27.632Z,58.37
2023-05-25T16:22:31.895Z,58.06
2023-05-25T16:24:35.795Z,58.37
2023-05-25T16:26:40.986Z,58.19
2023-05-25T16:28:45.064Z,57.93
2023-05-25T16:30:48.744Z,58.23
2023-05-25T16:32:52.704Z,58.14
2023-05-25T16:34:56.872Z,57.77
2023-05-25T16:37:00.466Z,57.81
2023-05-25T16:39:05.300Z,58.02
2023-05-25T16:41:09.075Z,58.05
2023-05-25T16:43:14.403Z,58.42
2023-05-25T16:45:18.458Z,58.21
2023-05-25T16:47:22.839Z,58.09
2023-05-25T16:49:26.446Z,58.20
2023-05-25T16:51:30.030Z,58.28
2023-05-25T16:53:33.728Z,58.47
2023-05-25T16:55:38.014Z,57.84
2023-05-25T16:57:42.249Z,58.42
2023-05-25T16:59:47.990Z,58.62
2023-05-25T17:01:52.460Z,58.47
2023-05-25T17:03:56.381Z,58.71
2023-05-25T17:06:00.757Z,58.56
2023-05-25T17:08:05.253Z,58.53
2023-05-25T17:10:10.336Z,58.51
2023-05-25T17:12:16.393Z,58.47
2023-05-25T17:14:22.688Z,58.58
2023-05-25T17:16:28.852Z,58.54
2023-05-25T17:18:33.741Z,58.76
2023-05-25T17:20:38.916Z,58.46
2023-05-25T17:22:43.824Z,58.61
2023-05-25T17:24:48.250Z,58.24
2023-05-25T17:26:52.548Z,58.82
2023-05-25T17:28:58.093Z,58.81
2023-05-25T17:31:02.478Z,58.78
2023-05-25T17:33:09.030Z,59.38
2023-05-25T17:35:15.009Z,59.51
2023-05-25T17:37:21.045Z,59.94
2023-05-25T17:39:26.126Z,60.26
2023-05-25T17:41:32.161Z,60.14
2023-05-25T17:43:36.067Z,60.17
2023-05-25T17:45:39.957Z,60.07
2023-05-25T17:47:44.123Z,60.38
2023-05-25T17:49:50.751Z,60.46
2023-05-25T17:51:55.940Z,60.75
2023-05-25T17:54:00.338Z,61.29
2023-05-25T17:56:04.348Z,61.62
2023-05-25T17:58:08.114Z,62.05
2023-05-25T18:00:13.933Z,61.93
2023-05-25T18:02:19.091Z,62.51
2023-05-25T18:04:23.005Z,62.67
2023-05-25T18:06:29.408Z,62.92
2023-05-25T18:08:33.380Z,63.53
2023-05-25T18:10:37.267Z,63.53
2023-05-25T18:12:41.765Z,63.62
2023-05-25T18:14:45.509Z,64.34
2023-05-25T18:16:49.465Z,64.42
2023-05-25T18:18:53.911Z,64.59
2023-05-25T18:20:57.694Z,65.07
2023-05-25T18:23:03.605Z,65.55
2023-05-25T18:25:08.318Z,66.11
2023-05-25T18:27:12.439Z,66.44
2023-05-25T18:29:17.694Z,66.18
2023-05-25T18:31:21.966Z,66.63
2023-05-25T18:33:26.227Z,66.95
2023-05-25T18:35:32.268Z,67.01
2023-05-25T18:37:36.933Z,67.99
2023-05-25T18:39:42.675Z,68.06
2023-05-25T18:41:47.018Z,68.47
2023-05-25T18:43:50.811Z,67.82
2023-05-25T18:45:54.849Z,67.51
2023-05-25T18:47:59.136Z,66.75
2023-05-25T18:50:07.620Z,66.40
2023-05-25T18:52:11.751Z,66.42
2023-05-25T18:54:17.051Z,66.62
2023-05-25T18:56:23.247Z,66.67
2023-05-25T18:58:27.282Z,66.83
2023-05-25T19:00:31.123Z,67.05
2023-05-25T19:02:36.376Z,67.10
2023-05-25T19:04:40.105Z,67.10
2023-05-25T19:06:43.916Z,67.06
2023-05-25T19:08:49.600Z,67.18
2023-05-25T19:10:53.308Z,67.47
2023-05-25T19:13:00.167Z,67.88
2023-05-25T19:15:03.970Z,67.70
2023-05-25T19:17:08.665Z,67.91
2023-05-25T19:19:12.863Z,67.67
2023-05-25T19:21:18.096Z,67.41
2023-05-25T19:23:24.600Z,67.64
2023-05-25T19:25:29.136Z,67.38
2023-05-25T19:27:34.653Z,67.71
2023-05-25T19:29:41.578Z,67.30
2023-05-25T19:31:52.533Z,67.45
2023-05-25T19:34:00.397Z,67.92
2023-05-25T19:36:08.916Z,68.21
2023-05-25T19:38:20.749Z,67.75
2023-05-25T19:40:34.169Z,67.74
2023-05-25T19:42:42.338Z,67.83
2023-05-25T19:44:50.487Z,68.10
2023-05-25T19:46:58.244Z,68.39
2023-05-25T19:49:04.421Z,68.32
2023-05-25T19:51:15.713Z,68.45
2023-05-25T19:53:25.067Z,68.29
2023-05-25T19:55:31.930Z,68.30
2023-05-25T19:57:40.211Z,68.27
2023-05-25T19:59:53.970Z,68.68
2023-05-25T20:02:03.746Z,69.21
2023-05-25T20:04:16.486Z,69.39
2023-05-25T20:06:41.372Z,69.44
2023-05-25T20:09:02.231Z,69.40
2023-05-25T20:11:18.313Z,69.10
2023-05-25T20:13:24.744Z,69.15
2023-05-25T20:15:34.828Z,68.81
2023-05-25T20:17:43.614Z,68.92
2023-05-25T20:19:54.357Z,68.89
2023-05-25T20:22:06.962Z,68.83
2023-05-25T20:24:15.721Z,68.70
2023-05-25T20:26:30.737Z,68.58
2023-05-25T20:28:41.344Z,68.45
2023-05-25T20:30:49.047Z,68.68
2023-05-25T20:32:56.163Z,68.25
2023-05-25T20:35:05.500Z,68.29
2023-05-25T20:37:09.864Z,68.32
2023-05-25T20:39:14.958Z,68.04
2023-05-25T20:41:22.066Z,67.75
2023-05-25T20:43:31.291Z,67.67
2023-05-25T20:45:39.188Z,67.19
2023-05-25T20:47:45.627Z,67.26
2023-05-25T20:49:50.011Z,67.01
2023-05-25T20:51:59.564Z,66.91
2023-05-25T20:54:10.425Z,66.87
2023-05-25T20:56:15.521Z,66.64
2023-05-25T20:58:19.556Z,66.80
2023-05-25T21:00:24.012Z,66.72
2023-05-25T21:02:32.084Z,67.30
2023-05-25T21:04:37.466Z,67.55
2023-05-25T21:06:43.757Z,67.75
2023-05-25T21:08:47.559Z,68.09
2023-05-25T21:10:51.259Z,68.60
2023-05-25T21:12:55.027Z,69.13
2023-05-25T21:14:58.856Z,69.12
2023-05-25T21:17:02.606Z,69.39
2023-05-25T21:19:06.533Z,69.95
2023-05-25T21:21:15.130Z,70.30
2023-05-25T21:23:22.825Z,70.68
2023-05-25T21:25:28.189Z,71.30
2023-05-25T21:27:32.347Z,71.73
2023-05-25T21:29:36.486Z,72.14
2023-05-25T21:31:40.302Z,72.51
2023-05-25T21:33:46.187Z,72.34
2023-05-25T21:35:49.882Z,72.68
2023-05-25T21:37:55.126Z,72.57
2023-05-25T21:39:58.785Z,72.50
2023-05-25T21:42:03.725Z,72.73
2023-05-25T21:44:06.902Z,72.93
2023-05-25T21:46:10.501Z,72.05
2023-05-25T21:48:14.236Z,71.72
2023-05-25T21:50:17.982Z,71.36
2023-05-25T21:52:22.298Z,71.25
2023-05-25T21:54:27.551Z,71.68
2023-05-25T21:56:31.077Z,71.29
2023-05-25T21:58:34.787Z,71.33
2023-05-25T22:00:38.662Z,71.52
2023-05-25T22:02:42.592Z,71.76
2023-05-25T22:04:46.193Z,71.62
2023-05-25T22:06:53.132Z,71.87
2023-05-25T22:08:56.969Z,71.46
2023-05-25T22:11:02.126Z,71.55
2023-05-25T22:13:06.426Z,71.21
2023-05-25T22:15:10.999Z,71.17
2023-05-25T22:17:15.474Z,71.38
2023-05-25T22:19:19.184Z,71.22
2023-05-25T22:21:22.893Z,71.35
2023-05-25T22:23:28.202Z,71.70
2023-05-25T22:25:31.938Z,71.56
2023-05-25T22:27:37.272Z,71.65
2023-05-25T22:29:41.240Z,71.62
2023-05-25T22:31:44.841Z,71.50
2023-05-25T22:33:48.505Z,71.81
2023-05-25T22:35:52.776Z,71.92
2023-05-25T22:37:56.591Z,72.05
2023-05-25T22:40:00.245Z,72.03
2023-05-25T22:42:03.973Z,72.45
2023-05-25T22:44:09.059Z,72.54
2023-05-25T22:46:13.055Z,72.65
2023-05-25T22:48:16.784Z,72.91
2023-05-25T22:50:20.435Z,74.42
2023-05-25T22:52:24.342Z,74.13
2023-05-25T22:54:28.122Z,74.54
2023-05-25T22:56:31.904Z,75.18
2023-05-25T22:58:35.634Z,75.61
2023-05-25T23:00:40.671Z,76.03
2023-05-25T23:02:44.162Z,76.67
2023-05-25T23:04:47.624Z,77.03
2023-05-25T23:06:50.945Z,77.51
2023-05-25T23:08:54.349Z,77.89
2023-05-25T23:10:57.728Z,78.36
2023-05-25T23:13:01.188Z,78.92
2023-05-25T23:15:07.075Z,79.64
2023-05-25T23:17:11.908Z,79.46
2023-05-25T23:19:14.964Z,80.06
2023-05-25T23:21:18.324Z,79.53
2023-05-25T23:23:21.660Z,79.57
2023-05-25T23:25:26.326Z,80.27
2023-05-25T23:27:29.677Z,80.49
2023-05-25T23:29:32.962Z,80.94
2023-05-25T23:31:36.269Z,81.38
2023-05-25T23:33:41.170Z,81.50
2023-05-25T23:35:44.420Z,81.72
2023-05-25T23:37:48.032Z,81.65
2023-05-25T23:39:51.436Z,81.75
2023-05-25T23:41:54.973Z,82.13
2023-05-25T23:43:58.272Z,82.07
2023-05-25T23:46:02.553Z,82.66
2023-05-25T23:48:06.191Z,82.73
2023-05-25T23:50:12.058Z,82.99
2023-05-25T23:52:15.480Z,83.03
2023-05-25T23:54:18.818Z,83.37
2023-05-25T23:56:23.003Z,83.39
2023-05-25T23:58:26.307Z,83.69
